createdAt,value
2018-08-24T00:00:18.584Z,12.13
2018-08-24T00:02:47.853Z,9.87
2018-08-24T00:05:16.318Z,11.83
2018-08-24T00:07:44.868Z,12.23
2018-08-24T00:10:13.389Z,10.50
2018-08-24T00:12:41.949Z,9.00
2018-08-24T00:15:10.492Z,9.13
2018-08-24T00:17:39.401Z,11.13
2018-08-24T00:20:08.050Z,11.70
2018-08-24T00:22:36.584Z,13.53
2018-08-24T00:25:05.554Z,9.70
2018-08-24T00:27:34.119Z,11.43
2018-08-24T00:30:03.999Z,10.57
2018-08-24T00:32:32.574Z,9.57
2018-08-24T00:35:01.062Z,8.03
2018-08-24T00:37:29.596Z,11.37
2018-08-24T00:39:58.132Z,11.57
2018-08-24T00:42:26.787Z,11.03
2018-08-24T00:44:55.263Z,14.23
2018-08-24T00:47:23.762Z,11.80
2018-08-24T00:49:52.315Z,8.47
2018-08-24T00:52:20.815Z,10.40
2018-08-24T00:54:49.353Z,9.67
2018-08-24T00:57:17.990Z,11.07
2018-08-24T00:59:46.669Z,7.70
2018-08-24T01:02:15.378Z,10.60
2018-08-24T01:04:43.980Z,8.77
2018-08-24T01:07:13.796Z,8.33
2018-08-24T01:09:42.907Z,8.83
2018-08-24T01:12:14.424Z,10.23
2018-08-24T01:14:44.375Z,10.50
2018-08-24T01:17:18.373Z,7.97
2018-08-24T01:19:47.469Z,11.60
2018-08-24T01:22:16.334Z,15.73
2018-08-24T01:24:45.547Z,10.50
2018-08-24T01:27:14.091Z,10.03
2018-08-24T01:29:43.445Z,8.27
2018-08-24T01:32:12.049Z,10.43
2018-08-24T01:34:41.515Z,8.93
2018-08-24T01:37:10.049Z,9.60
2018-08-24T01:39:38.640Z,9.57
2018-08-24T01:42:07.143Z,8.37
2018-08-24T01:44:35.656Z,8.10
2018-08-24T01:47:04.333Z,13.30
2018-08-24T01:49:33.209Z,10.70
2018-08-24T01:52:01.730Z,10.40
2018-08-24T01:54:30.935Z,16.23
2018-08-24T01:56:59.477Z,9.93
2018-08-24T01:59:28.235Z,7.93
2018-08-24T02:01:57.275Z,11.13
2018-08-24T02:04:25.814Z,13.23
2018-08-24T02:06:54.332Z,9.30
2018-08-24T02:09:23.842Z,12.60
2018-08-24T02:11:52.495Z,10.73
2018-08-24T02:14:26.308Z,9.97
2018-08-24T02:16:54.963Z,14.90
2018-08-24T02:19:28.929Z,7.80
2018-08-24T02:22:02.719Z,8.40
2018-08-24T02:24:31.262Z,7.70
2018-08-24T02:27:00.106Z,12.40
2018-08-24T02:29:28.610Z,9.37
2018-08-24T02:31:57.098Z,11.37
2018-08-24T02:34:25.675Z,8.33
2018-08-24T02:36:54.215Z,9.93
2018-08-24T02:39:23.380Z,9.97
2018-08-24T02:41:51.894Z,9.90
2018-08-24T02:44:20.616Z,14.27
2018-08-24T02:46:49.178Z,17.70
2018-08-24T02:49:17.692Z,14.63
2018-08-24T02:51:46.216Z,13.07
2018-08-24T02:54:14.751Z,11.63
2018-08-24T02:56:43.257Z,10.30
2018-08-24T02:59:12.098Z,11.10
2018-08-24T03:01:40.581Z,13.03
2018-08-24T03:04:09.092Z,10.90
2018-08-24T03:06:37.698Z,10.83
2018-08-24T03:09:09.157Z,8.37
2018-08-24T03:11:37.761Z,12.77
2018-08-24T03:14:06.510Z,14.67
2018-08-24T03:16:35.048Z,15.97
2018-08-24T03:19:03.578Z,10.27
2018-08-24T03:21:32.082Z,11.13
2018-08-24T03:24:00.571Z,11.43
2018-08-24T03:26:29.121Z,8.70
2018-08-24T03:28:57.627Z,7.53
2018-08-24T03:31:26.169Z,10.70
2018-08-24T03:33:54.917Z,9.90
2018-08-24T03:38:58.256Z,9.93
2018-08-24T03:41:26.812Z,14.20
2018-08-24T03:43:55.282Z,8.83
2018-08-24T03:46:23.814Z,8.90
2018-08-24T03:48:52.357Z,12.60
2018-08-24T03:51:21.056Z,8.73
2018-08-24T03:53:49.579Z,15.80
2018-08-24T03:56:18.098Z,13.33
2018-08-24T03:58:47.014Z,8.33
2018-08-24T04:01:15.618Z,13.87
2018-08-24T04:03:44.230Z,10.37
2018-08-24T04:06:12.747Z,10.27
2018-08-24T04:08:41.268Z,10.80
2018-08-24T04:11:09.785Z,8.90
2018-08-24T04:13:38.264Z,13.60
2018-08-24T04:16:06.848Z,10.17
2018-08-24T04:18:35.441Z,10.37
2018-08-24T04:21:04.008Z,9.57
2018-08-24T04:23:33.483Z,11.50
2018-08-24T04:26:02.032Z,33.67
2018-08-24T04:28:30.534Z,17.07
2018-08-24T04:30:59.039Z,12.80
2018-08-24T04:33:27.604Z,14.60
2018-08-24T04:35:56.119Z,12.33
2018-08-24T04:38:25.917Z,12.93
2018-08-24T04:40:54.441Z,12.03
2018-08-24T04:43:22.955Z,11.00
2018-08-24T04:45:51.480Z,12.70
2018-08-24T04:48:19.964Z,9.43
2018-08-24T04:50:48.960Z,10.27
2018-08-24T04:53:17.470Z,10.37
2018-08-24T04:55:46.023Z,11.40
2018-08-24T04:58:14.943Z,11.93
2018-08-24T05:00:44.294Z,18.20
2018-08-24T05:03:12.839Z,20.53
2018-08-24T05:05:41.369Z,13.13
2018-08-24T05:08:10.324Z,15.17
2018-08-24T05:10:38.834Z,14.17
2018-08-24T05:13:07.428Z,20.37
2018-08-24T05:15:36.239Z,9.63
2018-08-24T05:18:04.792Z,23.63
2018-08-24T05:20:33.283Z,12.43
2018-08-24T05:23:01.929Z,10.23
2018-08-24T05:25:30.427Z,19.10
2018-08-24T05:27:58.981Z,13.33
2018-08-24T05:30:27.505Z,16.90
2018-08-24T05:32:56.078Z,12.67
2018-08-24T05:35:25.289Z,12.80
2018-08-24T05:37:53.839Z,20.87
2018-08-24T05:40:22.350Z,12.40
2018-08-24T05:42:50.906Z,13.17
2018-08-24T05:45:19.452Z,15.67
2018-08-24T05:47:48.002Z,27.37
2018-08-24T05:50:16.517Z,13.90
2018-08-24T05:52:45.062Z,13.97
2018-08-24T05:55:15.466Z,16.47
2018-08-24T05:57:44.048Z,17.97
2018-08-24T06:00:14.830Z,13.47
2018-08-24T06:02:43.403Z,30.23
2018-08-24T06:05:11.917Z,22.03
2018-08-24T06:07:40.667Z,26.83
2018-08-24T06:10:09.214Z,21.10
2018-08-24T06:12:37.741Z,27.47
2018-08-24T06:15:06.266Z,25.10
2018-08-24T06:17:40.009Z,23.93
2018-08-24T06:20:08.551Z,24.27
2018-08-24T06:22:37.466Z,32.33
2018-08-24T06:25:05.996Z,29.13
2018-08-24T06:27:34.537Z,26.07
2018-08-24T06:30:03.041Z,28.27
2018-08-24T06:32:31.703Z,28.27
2018-08-24T06:35:00.223Z,26.50
2018-08-24T06:37:28.795Z,29.23
2018-08-24T06:39:57.321Z,25.57
2018-08-24T06:42:25.821Z,27.10
2018-08-24T06:44:54.669Z,30.50
2018-08-24T06:47:23.270Z,28.80
2018-08-24T06:49:51.695Z,28.57
2018-08-24T06:52:20.316Z,25.60
2018-08-24T06:54:49.326Z,32.03
2018-08-24T06:57:17.838Z,27.40
2018-08-24T06:59:46.629Z,28.70
2018-08-24T07:02:15.161Z,24.03
2018-08-24T07:04:43.725Z,34.43
2018-08-24T07:07:12.301Z,27.50
2018-08-24T07:09:40.804Z,30.10
2018-08-24T07:12:11.524Z,30.50
2018-08-24T07:14:40.914Z,37.10
2018-08-24T07:17:09.560Z,37.87
2018-08-24T07:19:38.078Z,33.07
2018-08-24T07:22:06.766Z,44.10
2018-08-24T07:24:35.270Z,40.90
2018-08-24T07:27:03.878Z,44.40
2018-08-24T07:29:32.369Z,40.53
2018-08-24T07:32:01.766Z,41.10
2018-08-24T07:34:30.870Z,46.40
2018-08-24T07:36:59.497Z,42.63
2018-08-24T07:39:28.159Z,47.17
2018-08-24T07:41:56.844Z,35.97
2018-08-24T07:44:25.385Z,42.30
2018-08-24T07:46:53.990Z,50.53
2018-08-24T07:49:22.626Z,40.97
2018-08-24T07:51:51.314Z,41.70
2018-08-24T07:54:19.879Z,37.37
2018-08-24T07:56:48.369Z,37.60
2018-08-24T07:59:16.963Z,38.97
2018-08-24T08:01:45.617Z,37.60
2018-08-24T08:04:14.217Z,40.83
2018-08-24T08:06:43.063Z,37.80
2018-08-24T08:09:11.613Z,35.60
2018-08-24T08:11:41.338Z,37.60
2018-08-24T08:14:10.294Z,34.87
2018-08-24T08:16:38.821Z,38.23
2018-08-24T08:19:07.349Z,38.73
2018-08-24T08:21:35.873Z,39.53
2018-08-24T08:24:04.543Z,50.13
2018-08-24T08:26:33.085Z,41.47
2018-08-24T08:29:01.691Z,31.10
2018-08-24T08:31:30.253Z,40.13
2018-08-24T08:33:58.799Z,35.80
2018-08-24T08:36:27.298Z,36.53
2018-08-24T08:38:55.851Z,34.57
2018-08-24T08:41:24.405Z,34.40
2018-08-24T08:43:52.937Z,37.17
2018-08-24T08:46:21.460Z,39.10
2018-08-24T08:48:50.029Z,40.70
2018-08-24T08:51:18.721Z,34.90
2018-08-24T08:53:47.275Z,37.57
2018-08-24T08:56:15.802Z,35.20
2018-08-24T08:58:44.625Z,35.53
2018-08-24T09:01:13.150Z,31.17
2018-08-24T09:03:41.747Z,35.20
2018-08-24T09:06:10.397Z,32.80
2018-08-24T09:08:38.842Z,35.03
2018-08-24T09:11:07.360Z,34.03
2018-08-24T09:13:35.965Z,35.67
2018-08-24T09:16:04.555Z,29.47
2018-08-24T09:18:38.430Z,35.67
2018-08-24T09:21:12.283Z,36.70
2018-08-24T09:23:46.165Z,38.10
2018-08-24T09:26:20.113Z,33.60
2018-08-24T09:28:50.091Z,31.00
2018-08-24T09:31:20.370Z,44.47
2018-08-24T09:33:49.791Z,36.70
2018-08-24T09:36:20.206Z,40.63
2018-08-24T09:38:49.922Z,28.27
2018-08-24T09:41:18.446Z,29.53
2018-08-24T09:43:52.209Z,41.77
2018-08-24T09:46:24.931Z,32.70
2018-08-24T09:49:28.811Z,36.07
2018-08-24T09:51:57.639Z,30.23
2018-08-24T09:54:26.218Z,29.97
2018-08-24T09:56:54.905Z,42.03
2018-08-24T09:59:23.437Z,28.70
2018-08-24T10:01:57.242Z,28.53
2018-08-24T10:04:31.172Z,29.33
2018-08-24T10:07:05.102Z,34.83
2018-08-24T10:09:34.592Z,27.60
2018-08-24T10:12:03.113Z,27.10
2018-08-24T10:14:31.649Z,31.90
2018-08-24T10:17:00.498Z,32.43
2018-08-24T10:19:29.257Z,28.47
2018-08-24T10:21:57.752Z,23.17
2018-08-24T10:24:26.263Z,28.70
2018-08-24T10:26:54.830Z,29.30
2018-08-24T10:29:24.095Z,29.80
2018-08-24T10:31:52.555Z,35.30
2018-08-24T10:34:21.315Z,35.97
2018-08-24T10:36:49.794Z,29.20
2018-08-24T10:39:18.291Z,23.60
2018-08-24T10:41:46.910Z,22.00
2018-08-24T10:44:15.410Z,19.70
2018-08-24T10:46:44.006Z,18.00
2018-08-24T10:49:12.553Z,19.87
2018-08-24T10:51:41.153Z,18.80
2018-08-24T10:54:09.670Z,15.27
2018-08-24T10:56:38.243Z,11.37
2018-08-24T10:59:07.325Z,10.87
2018-08-24T11:01:35.815Z,10.73
2018-08-24T11:04:04.382Z,18.80
2018-08-24T11:06:32.941Z,15.53
2018-08-24T11:09:01.455Z,11.53
2018-08-24T11:11:30.028Z,11.73
2018-08-24T11:13:58.816Z,14.47
2018-08-24T11:16:33.406Z,9.77
2018-08-24T11:19:02.013Z,10.57
2018-08-24T11:21:30.739Z,13.53
2018-08-24T11:24:00.234Z,8.47
2018-08-24T11:26:28.823Z,8.43
2018-08-24T11:28:57.320Z,9.03
2018-08-24T11:31:25.872Z,8.80
2018-08-24T11:33:54.405Z,8.63
2018-08-24T11:36:23.007Z,7.30
2018-08-24T11:38:51.520Z,6.43
2018-08-24T11:41:20.131Z,12.60
2018-08-24T11:43:48.650Z,11.17
2018-08-24T11:46:17.227Z,5.87
2018-08-24T11:48:45.786Z,7.47
2018-08-24T11:51:14.332Z,12.67
2018-08-24T11:53:42.979Z,10.30
2018-08-24T11:56:11.638Z,15.67
2018-08-24T11:58:40.325Z,8.17
2018-08-24T12:01:09.007Z,14.80
2018-08-24T12:03:37.918Z,7.50
2018-08-24T12:06:06.645Z,7.17
2018-08-24T12:08:35.171Z,7.50
2018-08-24T12:11:03.760Z,9.30
2018-08-24T12:13:32.318Z,9.00
2018-08-24T12:16:01.694Z,6.57
2018-08-24T12:18:30.378Z,6.23
2018-08-24T12:20:58.861Z,7.53
2018-08-24T12:23:27.401Z,7.23
2018-08-24T12:25:55.971Z,10.00
2018-08-24T12:28:24.454Z,5.70
2018-08-24T12:30:53.097Z,6.20
2018-08-24T12:33:21.608Z,7.93
2018-08-24T12:35:50.598Z,8.70
2018-08-24T12:38:19.557Z,8.90
2018-08-24T12:40:48.186Z,8.50
2018-08-24T12:43:16.903Z,8.90
2018-08-24T12:45:46.159Z,21.33
2018-08-24T12:48:14.641Z,8.90
2018-08-24T12:50:43.183Z,14.00
2018-08-24T12:53:11.875Z,6.27
2018-08-24T12:55:41.737Z,7.13
2018-08-24T12:58:10.434Z,6.60
2018-08-24T13:00:39.094Z,5.20
2018-08-24T13:03:07.654Z,10.10
2018-08-24T13:05:36.258Z,6.13
2018-08-24T13:08:05.123Z,4.43
2018-08-24T13:10:33.620Z,5.43
2018-08-24T13:13:02.173Z,4.10
2018-08-24T13:15:30.771Z,5.77
2018-08-24T13:17:59.347Z,4.33
2018-08-24T13:20:27.912Z,7.17
2018-08-24T13:22:56.892Z,6.70
2018-08-24T13:25:25.933Z,5.10
2018-08-24T13:27:54.507Z,7.60
2018-08-24T13:30:23.053Z,3.70
2018-08-24T13:32:51.670Z,5.83
2018-08-24T13:35:20.357Z,5.77
2018-08-24T13:37:49.088Z,7.03
2018-08-24T13:40:17.585Z,4.90
2018-08-24T13:42:47.059Z,4.70
2018-08-24T13:45:15.575Z,3.63
2018-08-24T13:47:44.527Z,6.00
2018-08-24T13:50:13.054Z,7.00
2018-08-24T13:52:41.603Z,3.30
2018-08-24T13:55:10.216Z,17.53
2018-08-24T13:57:39.057Z,8.63
2018-08-24T14:00:08.057Z,4.30
2018-08-24T14:02:36.660Z,9.73
2018-08-24T14:05:05.261Z,14.70
2018-08-24T14:07:34.465Z,6.63
2018-08-24T14:10:03.353Z,6.63
2018-08-24T14:12:32.028Z,13.73
2018-08-24T14:15:00.622Z,5.87
2018-08-24T14:17:29.809Z,6.80
2018-08-24T14:19:58.460Z,11.27
2018-08-24T14:22:27.015Z,6.53
2018-08-24T14:24:55.539Z,7.27
2018-08-24T14:27:24.179Z,9.67
2018-08-24T14:29:52.737Z,11.27
2018-08-24T14:32:21.819Z,9.43
2018-08-24T14:34:51.184Z,7.50
2018-08-24T14:37:19.758Z,6.70
2018-08-24T14:39:49.111Z,10.77
2018-08-24T14:42:17.638Z,15.83
2018-08-24T14:44:46.242Z,26.87
2018-08-24T14:47:16.018Z,7.43
2018-08-24T14:49:44.761Z,17.70
2018-08-24T14:52:13.503Z,14.07
2018-08-24T14:54:42.378Z,13.33
2018-08-24T14:57:11.774Z,9.93
2018-08-24T14:59:40.451Z,11.40
2018-08-24T15:02:08.965Z,15.93
2018-08-24T15:04:38.465Z,14.83
2018-08-24T15:07:08.341Z,14.13
2018-08-24T15:09:37.100Z,15.63
2018-08-24T15:12:06.044Z,21.40
2018-08-24T15:14:34.683Z,10.10
2018-08-24T15:17:03.532Z,11.27
2018-08-24T15:19:32.678Z,19.93
2018-08-24T15:22:01.276Z,12.27
2018-08-24T15:24:29.907Z,18.10
2018-08-24T15:26:58.474Z,8.97
2018-08-24T15:29:27.036Z,12.43
2018-08-24T15:31:55.596Z,18.17
2018-08-24T15:34:24.194Z,8.83
2018-08-24T15:36:53.661Z,8.40
2018-08-24T15:39:23.597Z,13.53
2018-08-24T15:41:52.145Z,5.33
2018-08-24T15:44:21.682Z,7.70
2018-08-24T15:46:50.250Z,8.47
2018-08-24T15:49:19.594Z,8.97
2018-08-24T15:51:48.311Z,11.17
2018-08-24T15:54:16.910Z,10.40
2018-08-24T15:56:45.510Z,10.03
2018-08-24T15:59:14.092Z,9.37
2018-08-24T16:01:45.510Z,12.90
2018-08-24T16:04:14.046Z,9.97
2018-08-24T16:06:42.553Z,6.43
2018-08-24T16:09:11.743Z,12.00
2018-08-24T16:11:40.708Z,10.00
2018-08-24T16:14:09.638Z,12.13
2018-08-24T16:16:38.856Z,13.13
2018-08-24T16:19:07.392Z,12.20
2018-08-24T16:21:35.954Z,11.73
2018-08-24T16:24:04.555Z,14.53
2018-08-24T16:26:33.042Z,13.43
2018-08-24T16:29:01.605Z,14.00
2018-08-24T16:31:30.174Z,15.17
2018-08-24T16:33:58.896Z,10.27
2018-08-24T16:36:27.388Z,11.30
2018-08-24T16:38:55.947Z,11.50
2018-08-24T16:41:24.434Z,20.37
2018-08-24T16:43:52.975Z,15.67
2018-08-24T16:46:21.683Z,11.50
2018-08-24T16:48:50.590Z,10.57
2018-08-24T16:51:20.438Z,14.10
2018-08-24T16:53:48.974Z,9.80
2018-08-24T16:56:17.757Z,14.97
2018-08-24T16:58:46.476Z,9.80
2018-08-24T17:01:15.083Z,12.73
2018-08-24T17:03:43.966Z,10.03
2018-08-24T17:06:12.701Z,10.57
2018-08-24T17:08:41.298Z,11.07
2018-08-24T17:11:10.057Z,8.13
2018-08-24T17:13:38.613Z,8.87
2018-08-24T17:16:07.169Z,9.50
2018-08-24T17:18:35.796Z,9.90
2018-08-24T17:21:04.400Z,8.13
2018-08-24T17:23:32.878Z,12.97
2018-08-24T17:26:01.430Z,12.37
2018-08-24T17:28:29.960Z,12.23
2018-08-24T17:30:59.102Z,13.13
2018-08-24T17:33:27.660Z,10.03
2018-08-24T17:35:56.300Z,9.50
2018-08-24T17:38:25.532Z,12.43
2018-08-24T17:40:54.097Z,9.27
2018-08-24T17:43:22.647Z,9.60
2018-08-24T17:45:51.237Z,8.90
2018-08-24T17:48:19.731Z,8.80
2018-08-24T17:50:49.182Z,14.80
2018-08-24T17:53:17.741Z,9.67
2018-08-24T17:55:46.349Z,12.50
2018-08-24T17:58:14.938Z,10.07
2018-08-24T18:00:43.569Z,8.87
2018-08-24T18:03:12.565Z,10.87
2018-08-24T18:05:41.113Z,10.00
2018-08-24T18:08:09.712Z,9.63
2018-08-24T18:10:38.310Z,9.80
2018-08-24T18:13:07.170Z,10.80
2018-08-24T18:15:36.052Z,8.40
2018-08-24T18:18:04.578Z,8.50
2018-08-24T18:20:33.601Z,7.30
2018-08-24T18:23:02.165Z,9.80
2018-08-24T18:25:30.764Z,9.73
2018-08-24T18:27:59.275Z,11.40
2018-08-24T18:30:27.775Z,9.10
2018-08-24T18:32:56.693Z,10.70
2018-08-24T18:35:25.218Z,10.57
2018-08-24T18:37:53.801Z,7.57
2018-08-24T18:40:22.418Z,10.40
2018-08-24T18:42:51.166Z,10.70
2018-08-24T18:45:19.690Z,8.60
2018-08-24T18:47:48.926Z,11.87
2018-08-24T18:50:17.522Z,7.90
2018-08-24T18:52:46.416Z,25.10
2018-08-24T18:55:15.116Z,13.53
2018-08-24T18:57:43.825Z,11.57
2018-08-24T19:00:12.391Z,9.43
2018-08-24T19:02:41.192Z,7.03
2018-08-24T19:05:09.823Z,8.77
2018-08-24T19:07:38.713Z,8.17
2018-08-24T19:10:07.343Z,10.27
2018-08-24T19:12:35.928Z,10.97
2018-08-24T19:15:05.777Z,7.77
2018-08-24T19:17:40.767Z,10.63
2018-08-24T19:20:14.686Z,9.03
2018-08-24T19:22:47.539Z,10.80
2018-08-24T19:25:16.120Z,8.60
2018-08-24T19:27:50.259Z,11.50
2018-08-24T19:30:24.475Z,13.37
2018-08-24T19:32:53.652Z,10.53
2018-08-24T19:35:22.653Z,10.20
2018-08-24T19:37:51.899Z,11.53
2018-08-24T19:40:25.612Z,9.97
2018-08-24T19:42:54.708Z,8.33
2018-08-24T19:45:24.399Z,7.87
2018-08-24T19:47:58.340Z,12.23
2018-08-24T19:50:27.717Z,9.40
2018-08-24T19:52:56.268Z,11.50
2018-08-24T19:55:24.851Z,13.00
2018-08-24T19:57:59.099Z,12.33
2018-08-24T20:00:29.547Z,10.13
2018-08-24T20:02:58.193Z,9.37
2018-08-24T20:05:26.962Z,13.27
2018-08-24T20:08:00.943Z,12.53
2018-08-24T20:10:29.531Z,9.57
2018-08-24T20:12:58.659Z,12.40
2018-08-24T20:15:33.001Z,13.67
2018-08-24T20:18:03.052Z,12.50
2018-08-24T20:20:31.607Z,12.53
2018-08-24T20:23:00.433Z,10.50
2018-08-24T20:25:29.337Z,10.63
2018-08-24T20:27:58.038Z,14.90
2018-08-24T20:30:27.318Z,11.73
2018-08-24T20:32:56.012Z,10.00
2018-08-24T20:35:25.227Z,12.77
2018-08-24T20:37:53.777Z,11.27
2018-08-24T20:40:22.590Z,13.53
2018-08-24T20:42:52.414Z,13.53
2018-08-24T20:45:20.937Z,14.80
2018-08-24T20:47:49.578Z,11.90
2018-08-24T20:50:18.658Z,14.53
2018-08-24T20:52:47.201Z,12.90
2018-08-24T20:55:16.018Z,10.40
2018-08-24T20:57:44.727Z,10.90
2018-08-24T21:00:13.427Z,13.13
2018-08-24T21:02:42.083Z,14.97
2018-08-24T21:05:11.310Z,12.13
2018-08-24T21:07:40.364Z,14.30
2018-08-24T21:10:09.201Z,16.57
2018-08-24T21:12:38.185Z,12.63
2018-08-24T21:15:07.148Z,12.67
2018-08-24T21:17:36.391Z,12.20
2018-08-24T21:20:05.277Z,13.00
2018-08-24T21:22:33.800Z,17.10
2018-08-24T21:25:02.441Z,11.60
2018-08-24T21:27:31.539Z,15.00
2018-08-24T21:30:00.692Z,10.70
2018-08-24T21:32:29.387Z,12.83
2018-08-24T21:34:57.929Z,12.80
2018-08-24T21:37:26.477Z,10.67
2018-08-24T21:39:55.404Z,13.80
2018-08-24T21:42:25.115Z,13.33
2018-08-24T21:44:54.875Z,12.30
2018-08-24T21:47:24.204Z,13.50
2018-08-24T21:49:52.737Z,14.40
2018-08-24T21:52:21.464Z,17.07
2018-08-24T21:54:50.181Z,14.57
2018-08-24T21:57:18.969Z,11.50
2018-08-24T21:59:47.693Z,14.13
2018-08-24T22:02:16.269Z,13.00
2018-08-24T22:04:44.875Z,14.43
2018-08-24T22:07:13.419Z,13.27
2018-08-24T22:09:41.910Z,12.87
2018-08-24T22:12:10.480Z,14.33
2018-08-24T22:14:39.374Z,14.53
2018-08-24T22:17:08.218Z,16.93
2018-08-24T22:19:36.723Z,15.97
2018-08-24T22:22:05.786Z,19.80
2018-08-24T22:24:34.511Z,18.30
2018-08-24T22:27:03.093Z,17.00
2018-08-24T22:29:31.912Z,13.83
2018-08-24T22:32:00.463Z,14.67
2018-08-24T22:34:29.026Z,13.63
2018-08-24T22:36:57.577Z,15.90
2018-08-24T22:39:26.276Z,15.57
2018-08-24T22:41:54.804Z,17.23
2018-08-24T22:44:23.395Z,13.30
2018-08-24T22:46:51.896Z,19.10
2018-08-24T22:49:21.977Z,16.80
2018-08-24T22:51:51.463Z,13.40
2018-08-24T22:54:20.142Z,14.73
2018-08-24T22:56:48.820Z,26.27
2018-08-24T22:59:17.391Z,18.80
2018-08-24T23:01:45.974Z,15.13
2018-08-24T23:04:15.788Z,15.53
2018-08-24T23:06:44.324Z,19.93
2018-08-24T23:09:12.854Z,22.07
2018-08-24T23:11:41.573Z,18.93
2018-08-24T23:14:11.189Z,17.70
2018-08-24T23:16:39.674Z,20.47
2018-08-24T23:19:08.234Z,18.50
2018-08-24T23:21:36.733Z,14.77
2018-08-24T23:24:05.988Z,13.37
2018-08-24T23:26:34.541Z,20.30
2018-08-24T23:29:03.281Z,18.50
2018-08-24T23:31:31.865Z,16.87
2018-08-24T23:34:00.853Z,14.87
2018-08-24T23:36:29.419Z,19.00
2018-08-24T23:38:58.516Z,17.30
2018-08-24T23:41:27.699Z,19.37
2018-08-24T23:43:57.353Z,16.60
2018-08-24T23:46:25.890Z,19.53
2018-08-24T23:48:54.432Z,21.47
2018-08-24T23:51:22.972Z,15.27
2018-08-24T23:53:51.605Z,16.33
2018-08-24T23:56:21.060Z,16.73
2018-08-24T23:58:50.608Z,19.33
